Terminal Aerodrome Forecast
Issued by NWS Goodland, KS

Home | Current Version | Previous Version | Text Only | Print | Product List | Glossary On
Versions: 1 2 3 4 5 6 7 8 9 10 11 12 13
000
FTUS43 KGLD 200536
TAFGLD
TAF
KGLD 200536Z 2006/2106 VRB05KT P6SM FEW140 FEW250
     FM201500 03006KT P6SM FEW130 FEW250
     FM202100 12009KT P6SM FEW130 FEW250
     FM210000 09007KT P6SM FEW110 FEW250
     FM210300 06009KT P6SM BKN015=

USA.gov is the U.S. government's official web portal to all federal, state and local government web resources and services.